Time;durP1;ratioP1;P1;durP2;ratioP2;P2;SDS_P1;SDS_P2;PMS_P1;PMS_P2;Temp;Humidity;BMP_temperature;BMP_pressure;BME280_temperature;BME280_humidity;BME280_pressure;Samples;Min_cycle;Max_cycle;Signal;HPM_P1;HPM_P2
2023/09/24 00:02:14;;;;;;;12.55;3.92;;;11.50;99.90;;;;;;5019195;28;20014;-88
2023/09/24 00:04:42;;;;;;;17.23;3.30;;;11.50;99.90;;;;;;5002351;28;20044;-88
2023/09/24 00:07:08;;;;;;;10.98;3.30;;;11.40;99.90;;;;;;5001826;28;20053;-88
2023/09/24 00:09:33;;;;;;;16.80;4.28;;;11.40;99.90;;;;;;5001674;28;20014;-89
2023/09/24 00:11:59;;;;;;;10.73;3.40;;;11.40;99.90;;;;;;4986677;28;20030;-88
2023/09/24 00:14:29;;;;;;;12.60;3.35;;;11.40;99.90;;;;;;4983953;28;20033;-87
2023/09/24 00:16:55;;;;;;;11.88;3.67;;;11.40;99.90;;;;;;5000205;28;20547;-88
2023/09/24 00:19:21;;;;;;;14.68;4.07;;;11.40;99.90;;;;;;4981975;28;20026;-88
2023/09/24 00:21:49;;;;;;;8.20;3.70;;;11.40;99.90;;;;;;4982512;28;20026;-88
2023/09/24 00:24:18;;;;;;;14.93;3.85;;;11.40;99.90;;;;;;4980586;28;20034;-87
2023/09/24 00:26:46;;;;;;;10.43;3.47;;;11.40;99.90;;;;;;4980594;28;20022;-88
2023/09/24 00:29:13;;;;;;;10.93;3.60;;;11.40;99.90;;;;;;4997858;28;20027;-87
2023/09/24 00:31:39;;;;;;;17.02;4.03;;;11.40;99.90;;;;;;4980403;28;20053;-88
2023/09/24 00:34:05;;;;;;;16.33;3.90;;;11.40;99.90;;;;;;4997955;28;20034;-88
2023/09/24 00:36:35;;;;;;;15.13;3.55;;;11.50;99.90;;;;;;4996613;28;20034;-88
2023/09/24 00:39:01;;;;;;;11.52;3.72;;;11.50;99.90;;;;;;4979487;28;20054;-88
2023/09/24 00:41:27;;;;;;;10.63;3.17;;;11.50;99.90;;;;;;4979513;28;20026;-88
2023/09/24 00:43:53;;;;;;;15.23;3.55;;;11.50;99.90;;;;;;4995460;28;20073;-87
2023/09/24 00:46:21;;;;;;;10.35;3.20;;;11.50;99.90;;;;;;4997076;28;20026;-88
2023/09/24 00:48:48;;;;;;;8.88;3.20;;;11.50;99.90;;;;;;4997353;28;20026;-87
2023/09/24 00:51:21;;;;;;;14.88;3.33;;;11.60;99.90;;;;;;4980578;28;20065;-87
2023/09/24 00:53:50;;;;;;;16.30;3.47;;;11.60;99.90;;;;;;4981573;28;20030;-87
2023/09/24 00:56:15;;;;;;;16.27;2.88;;;11.60;99.90;;;;;;4981049;28;20455;-87
2023/09/24 00:58:46;;;;;;;13.25;3.10;;;11.60;99.90;;;;;;4980221;28;20026;-88
2023/09/24 01:01:12;;;;;;;11.35;3.17;;;11.60;99.90;;;;;;4981697;28;20027;-90
2023/09/24 01:03:40;;;;;;;11.35;2.92;;;11.60;99.90;;;;;;4996949;28;20047;-88
2023/09/24 01:06:06;;;;;;;14.55;3.40;;;11.60;99.90;;;;;;4997107;28;20468;-89
2023/09/24 01:08:33;;;;;;;13.38;3.15;;;11.70;99.90;;;;;;4979467;28;20391;-89
2023/09/24 01:11:00;;;;;;;15.02;3.53;;;11.60;99.90;;;;;;4995164;28;20397;-89
2023/09/24 01:13:39;;;;;;;11.27;3.10;;;11.60;99.90;;;;;;4978731;28;20092;-89
2023/09/24 01:16:08;;;;;;;15.63;4.38;;;11.60;99.90;;;;;;4978411;28;20035;-89
2023/09/24 01:18:37;;;;;;;15.93;3.35;;;11.60;99.90;;;;;;4978459;28;20033;-88
2023/09/24 01:21:11;;;;;;;12.95;3.97;;;11.60;99.90;;;;;;4995625;28;20031;-88
2023/09/24 01:23:38;;;;;;;15.88;4.85;;;11.60;99.90;;;;;;4978407;28;20479;-89
2023/09/24 01:26:03;;;;;;;10.88;3.53;;;11.50;99.90;;;;;;4994543;28;20615;-88
2023/09/24 01:28:30;;;;;;;13.23;3.17;;;11.50;99.90;;;;;;4995740;28;20080;-89
2023/09/24 01:30:56;;;;;;;15.93;3.17;;;11.50;99.90;;;;;;4978314;28;20511;-89
2023/09/24 01:33:23;;;;;;;9.75;3.40;;;11.50;99.90;;;;;;4995049;28;20415;-89
2023/09/24 01:35:49;;;;;;;12.60;3.13;;;11.50;99.90;;;;;;4977634;28;20033;-88
2023/09/24 01:38:16;;;;;;;14.48;2.97;;;11.50;99.90;;;;;;4995330;28;20019;-88
2023/09/24 01:40:41;;;;;;;14.10;3.30;;;11.50;99.90;;;;;;4995175;28;20026;-89
2023/09/24 01:43:08;;;;;;;12.93;3.63;;;11.60;99.90;;;;;;4995287;28;20019;-88
2023/09/24 01:45:38;;;;;;;13.35;3.47;;;11.60;99.90;;;;;;4994875;28;20034;-88
2023/09/24 01:48:04;;;;;;;13.32;3.78;;;11.60;99.90;;;;;;4974074;28;20031;-90
2023/09/24 01:50:35;;;;;;;12.95;3.55;;;11.60;99.90;;;;;;4957515;28;20037;-91
2023/09/24 01:53:01;;;;;;;10.52;3.55;;;11.60;99.90;;;;;;4957590;28;20030;-89
2023/09/24 01:55:31;;;;;;;15.05;3.70;;;11.60;99.90;;;;;;4973653;28;20031;-89
2023/09/24 01:58:01;;;;;;;14.93;3.57;;;11.60;99.90;;;;;;4957651;28;20035;-89
2023/09/24 02:00:26;;;;;;;10.93;3.17;;;11.60;99.90;;;;;;4974954;28;20439;-89
2023/09/24 02:02:54;;;;;;;11.00;3.20;;;11.60;99.90;;;;;;4957769;28;20023;-89
2023/09/24 02:05:20;;;;;;;13.93;3.50;;;11.60;99.90;;;;;;4975288;28;20055;-89
2023/09/24 02:07:49;;;;;;;15.05;3.83;;;11.60;99.90;;;;;;4975571;28;20026;-89
2023/09/24 02:10:18;;;;;;;9.18;3.72;;;11.60;99.90;;;;;;4958092;28;20090;-89
2023/09/24 02:12:45;;;;;;;16.10;2.83;;;11.60;99.90;;;;;;4957915;28;20023;-90
2023/09/24 02:15:12;;;;;;;12.07;3.13;;;11.60;99.90;;;;;;4958145;28;20030;-89
2023/09/24 02:17:41;;;;;;;9.40;3.13;;;11.70;99.90;;;;;;4974100;28;20393;-89
2023/09/24 02:20:23;;;;;;;15.00;3.63;;;11.70;99.90;;;;;;4957604;28;20027;-89
2023/09/24 02:22:50;;;;;;;14.25;3.83;;;11.70;99.90;;;;;;4957817;28;20033;-89
2023/09/24 02:25:19;;;;;;;15.85;3.60;;;11.70;99.90;;;;;;4957542;28;20023;-90
2023/09/24 02:27:46;;;;;;;15.25;3.78;;;11.70;99.90;;;;;;4973830;28;20473;-89
2023/09/24 02:30:13;;;;;;;17.13;5.22;;;11.80;99.90;;;;;;4957351;28;20035;-89
2023/09/24 02:32:40;;;;;;;10.45;3.80;;;11.80;99.90;;;;;;4957510;28;20023;-89
2023/09/24 02:35:08;;;;;;;17.27;4.10;;;11.80;99.90;;;;;;4957750;28;20038;-89
2023/09/24 02:37:34;;;;;;;15.65;3.65;;;11.80;99.90;;;;;;4958089;28;20077;-89
2023/09/24 02:40:03;;;;;;;11.18;3.60;;;11.80;99.90;;;;;;4957739;28;20376;-89
2023/09/24 02:42:29;;;;;;;11.73;3.53;;;11.80;99.90;;;;;;4957995;28;20492;-89
2023/09/24 02:44:56;;;;;;;13.57;4.00;;;11.80;99.90;;;;;;4974964;28;20035;-89
2023/09/24 02:47:22;;;;;;;9.98;3.58;;;11.80;99.90;;;;;;4957707;28;20023;-89
2023/09/24 02:49:48;;;;;;;9.70;3.25;;;11.90;99.90;;;;;;4957491;28;20045;-89
2023/09/24 02:52:14;;;;;;;18.38;4.70;;;11.80;99.90;;;;;;4957487;28;20075;-90
2023/09/24 02:54:40;;;;;;;17.38;4.82;;;11.90;99.90;;;;;;4958076;28;20436;-89
2023/09/24 02:57:06;;;;;;;21.52;4.20;;;11.90;99.90;;;;;;4975841;28;20027;-90
2023/09/24 02:59:32;;;;;;;14.75;4.20;;;11.90;99.90;;;;;;4976388;28;20023;-90
2023/09/24 03:01:58;;;;;;;10.70;3.88;;;11.90;99.90;;;;;;4961386;28;20098;-89
2023/09/24 03:04:23;;;;;;;8.60;3.28;;;11.90;99.90;;;;;;4962254;28;20055;-91
2023/09/24 03:06:49;;;;;;;13.88;3.55;;;11.90;99.90;;;;;;4963105;28;20018;-89
2023/09/24 03:09:15;;;;;;;11.98;3.88;;;12.00;99.90;;;;;;4980620;28;20031;-89
2023/09/24 03:11:41;;;;;;;17.70;4.43;;;12.00;99.90;;;;;;4994179;28;20018;-91
2023/09/24 03:14:07;;;;;;;20.45;4.22;;;12.00;99.90;;;;;;4997405;28;20038;-91
2023/09/24 03:16:33;;;;;;;10.23;3.92;;;12.00;99.90;;;;;;4992305;28;20038;-89
2023/09/24 03:19:00;;;;;;;13.93;3.83;;;12.00;99.90;;;;;;4987169;28;20492;-89
2023/09/24 03:21:25;;;;;;;14.95;4.10;;;12.00;99.90;;;;;;4980477;28;20027;-89
2023/09/24 03:23:52;;;;;;;13.00;4.20;;;12.10;99.90;;;;;;4974435;28;20046;-88
2023/09/24 03:26:19;;;;;;;8.40;3.25;;;12.00;99.90;;;;;;4960163;28;20027;-88
2023/09/24 03:28:46;;;;;;;17.30;4.38;;;12.10;99.90;;;;;;4959826;28;20078;-89
2023/09/24 03:31:15;;;;;;;11.57;3.88;;;12.10;99.90;;;;;;4959091;28;20061;-88
2023/09/24 03:33:41;;;;;;;6.43;2.97;;;12.10;99.90;;;;;;4958230;28;20025;-89
2023/09/24 03:36:10;;;;;;;7.95;3.58;;;12.10;99.90;;;;;;4958571;28;20045;-88
2023/09/24 03:38:36;;;;;;;12.77;3.33;;;12.10;99.90;;;;;;4958111;28;20528;-88
2023/09/24 03:41:03;;;;;;;9.95;3.10;;;12.10;99.90;;;;;;4961834;28;20031;-88
2023/09/24 03:43:29;;;;;;;10.18;3.58;;;12.10;99.90;;;;;;4961692;28;20027;-88
2023/09/24 03:45:55;;;;;;;13.52;3.80;;;12.10;99.90;;;;;;4960815;28;20121;-88
2023/09/24 03:48:22;;;;;;;9.18;2.83;;;12.10;99.90;;;;;;4990041;28;20080;-88
2023/09/24 03:50:48;;;;;;;5.95;2.60;;;12.10;99.90;;;;;;4980528;28;20045;-88
2023/09/24 03:53:17;;;;;;;6.05;2.60;;;12.20;99.90;;;;;;4980495;28;20038;-88
2023/09/24 03:55:47;;;;;;;6.07;2.17;;;12.20;99.90;;;;;;4982051;28;20026;-89
2023/09/24 03:58:13;;;;;;;5.90;2.13;;;12.20;99.90;;;;;;4983523;28;20261;-88
2023/09/24 04:00:39;;;;;;;4.25;2.00;;;12.20;99.90;;;;;;4983000;28;20472;-89
2023/09/24 04:03:05;;;;;;;2.28;1.77;;;12.20;99.90;;;;;;4981525;28;20472;-88
2023/09/24 04:05:33;;;;;;;7.25;2.00;;;12.20;99.90;;;;;;4998013;28;20050;-88
2023/09/24 04:08:00;;;;;;;4.40;1.98;;;12.30;99.90;;;;;;4980180;28;20022;-89
2023/09/24 04:10:29;;;;;;;4.68;1.40;;;12.30;99.90;;;;;;4980359;28;20440;-88
2023/09/24 04:12:55;;;;;;;3.75;1.83;;;12.30;99.90;;;;;;4980525;28;20057;-88
2023/09/24 04:15:28;;;;;;;2.60;1.45;;;12.30;99.90;;;;;;4980316;28;20026;-89
2023/09/24 04:17:56;;;;;;;4.93;1.90;;;12.30;99.90;;;;;;4980204;28;20481;-88
2023/09/24 04:20:22;;;;;;;3.35;1.80;;;12.40;99.90;;;;;;4997700;28;20030;-89
2023/09/24 04:22:48;;;;;;;3.92;2.03;;;12.40;99.90;;;;;;4997371;28;20087;-89
2023/09/24 04:25:22;;;;;;;4.32;1.63;;;12.40;99.90;;;;;;4997262;28;20042;-89
2023/09/24 04:27:48;;;;;;;4.97;2.22;;;12.40;99.90;;;;;;4980106;28;20034;-88
2023/09/24 04:30:15;;;;;;;4.82;2.28;;;12.50;99.90;;;;;;4980765;28;20026;-90
2023/09/24 04:32:54;;;;;;;4.55;2.08;;;12.50;99.90;;;;;;4980219;28;20026;-88
2023/09/24 04:35:20;;;;;;;5.43;1.95;;;12.50;99.90;;;;;;4980087;28;20033;-89
2023/09/24 04:37:47;;;;;;;4.85;2.00;;;12.50;99.90;;;;;;4997701;28;20042;-88
2023/09/24 04:40:14;;;;;;;4.63;1.90;;;12.50;99.90;;;;;;4980396;28;20061;-89
2023/09/24 04:42:41;;;;;;;5.28;1.90;;;12.50;99.90;;;;;;4980024;28;20034;-88
2023/09/24 04:45:10;;;;;;;4.18;1.92;;;12.60;99.90;;;;;;4980513;28;20084;-88
2023/09/24 04:47:36;;;;;;;9.40;3.33;;;12.60;99.90;;;;;;4981234;28;20522;-88
2023/09/24 04:50:02;;;;;;;4.88;2.75;;;12.60;99.90;;;;;;4995941;28;20031;-89
2023/09/24 04:52:28;;;;;;;3.80;1.55;;;12.60;99.90;;;;;;4995514;28;20037;-89
2023/09/24 04:54:54;;;;;;;5.82;2.00;;;12.60;99.90;;;;;;4996001;28;20423;-88
2023/09/24 04:57:20;;;;;;;4.00;1.70;;;12.60;99.90;;;;;;4978501;28;20026;-89
2023/09/24 04:59:45;;;;;;;4.22;1.70;;;12.70;99.90;;;;;;4979075;28;20522;-88
2023/09/24 05:02:11;;;;;;;6.30;1.75;;;12.70;99.90;;;;;;4996284;28;20035;-87
2023/09/24 05:04:37;;;;;;;4.65;1.70;;;12.70;99.90;;;;;;4979073;28;20046;-88
2023/09/24 05:07:03;;;;;;;3.60;1.80;;;12.70;99.90;;;;;;4978670;28;20065;-89
2023/09/24 05:09:30;;;;;;;2.65;1.85;;;12.80;99.90;;;;;;4978833;28;20388;-88
2023/09/24 05:11:55;;;;;;;3.95;1.80;;;12.80;99.90;;;;;;4995926;28;20579;-88
2023/09/24 05:14:21;;;;;;;4.80;1.92;;;12.80;99.90;;;;;;4995540;28;20022;-88
2023/09/24 05:16:50;;;;;;;2.55;1.55;;;12.80;99.90;;;;;;4999728;28;20026;-87
2023/09/24 05:19:16;;;;;;;4.57;1.90;;;12.80;99.90;;;;;;4978757;28;20085;-88
2023/09/24 05:21:42;;;;;;;4.88;1.77;;;12.80;99.90;;;;;;4977760;28;20022;-88
2023/09/24 05:24:08;;;;;;;3.78;2.13;;;12.80;99.90;;;;;;4978102;28;20439;-88
2023/09/24 05:26:34;;;;;;;4.78;2.00;;;12.90;99.90;;;;;;4977616;28;20038;-88
2023/09/24 05:28:59;;;;;;;3.78;2.20;;;12.90;99.90;;;;;;4994823;28;20088;-88
2023/09/24 05:31:25;;;;;;;5.03;2.33;;;12.90;99.90;;;;;;4995100;28;20173;-88
2023/09/24 05:33:50;;;;;;;5.45;2.00;;;13.00;99.90;;;;;;4977149;28;20395;-88
2023/09/24 05:36:16;;;;;;;5.50;2.40;;;13.00;99.90;;;;;;4977989;28;20033;-88
2023/09/24 05:38:42;;;;;;;5.80;2.67;;;13.00;99.90;;;;;;4994959;28;20041;-88
2023/09/24 05:41:07;;;;;;;8.50;2.78;;;13.00;99.90;;;;;;4994789;28;20417;-89
2023/09/24 05:43:33;;;;;;;6.00;2.90;;;13.10;99.90;;;;;;4977198;28;20393;-89
2023/09/24 05:46:01;;;;;;;6.07;2.83;;;13.10;99.90;;;;;;4977307;28;20373;-89
2023/09/24 05:48:27;;;;;;;4.43;2.88;;;13.10;99.90;;;;;;4977172;28;20041;-90
2023/09/24 05:50:53;;;;;;;4.95;2.65;;;13.20;99.90;;;;;;4977173;28;20038;-90
2023/09/24 05:53:19;;;;;;;10.07;3.28;;;13.20;99.90;;;;;;4994915;28;20027;-91
2023/09/24 05:55:55;;;;;;;6.28;3.25;;;13.30;99.90;;;;;;4977251;28;20069;-91
2023/09/24 05:58:21;;;;;;;9.82;3.15;;;13.30;99.90;;;;;;4977303;28;20516;-90
2023/09/24 06:00:47;;;;;;;8.52;3.78;;;13.40;99.90;;;;;;4977366;28;20058;-91
2023/09/24 06:03:14;;;;;;;14.13;3.35;;;13.40;99.90;;;;;;4977298;28;20018;-90
2023/09/24 06:05:40;;;;;;;7.80;2.80;;;13.40;99.90;;;;;;4977475;28;20516;-90
2023/09/24 06:08:06;;;;;;;6.32;3.03;;;13.50;99.90;;;;;;4979116;28;20468;-91
2023/09/24 06:10:34;;;;;;;5.68;2.70;;;13.50;99.90;;;;;;4978477;28;20037;-90
2023/09/24 06:13:00;;;;;;;6.28;2.55;;;13.50;99.90;;;;;;4977345;28;20445;-91
2023/09/24 06:15:26;;;;;;;6.43;2.60;;;13.60;99.90;;;;;;4977420;28;20061;-91
2023/09/24 06:17:52;;;;;;;5.68;2.40;;;13.60;99.90;;;;;;4977061;28;20085;-90
2023/09/24 06:20:18;;;;;;;4.43;2.00;;;13.60;99.90;;;;;;4977034;28;20129;-90
2023/09/24 06:22:50;;;;;;;3.42;1.95;;;13.70;99.90;;;;;;4977116;28;20412;-91
2023/09/24 06:25:15;;;;;;;7.32;2.13;;;13.70;99.90;;;;;;4976919;28;20027;-90
2023/09/24 06:27:41;;;;;;;3.85;2.25;;;13.70;99.90;;;;;;4976846;28;20029;-91
2023/09/24 06:30:08;;;;;;;4.80;1.63;;;13.80;99.90;;;;;;4976725;28;20030;-91
2023/09/24 06:32:35;;;;;;;4.95;1.63;;;13.70;99.90;;;;;;4976740;28;20080;-90
2023/09/24 06:35:00;;;;;;;5.18;1.60;;;13.70;99.90;;;;;;4993936;28;20057;-90
2023/09/24 06:37:26;;;;;;;3.58;1.20;;;13.80;99.90;;;;;;4976800;28;20476;-90
2023/09/24 06:39:52;;;;;;;2.83;1.20;;;13.80;99.90;;;;;;4978027;28;20025;-90
2023/09/24 06:42:17;;;;;;;3.03;1.27;;;13.80;99.90;;;;;;4977123;28;20333;-90
2023/09/24 06:44:44;;;;;;;4.68;1.30;;;13.80;99.90;;;;;;4976969;28;20492;-90
2023/09/24 06:47:10;;;;;;;2.63;1.70;;;13.80;99.90;;;;;;4977042;28;20050;-90
2023/09/24 06:49:37;;;;;;;1.70;1.20;;;13.90;99.90;;;;;;4976956;28;20033;-90
2023/09/24 06:52:03;;;;;;;5.20;1.70;;;13.90;99.90;;;;;;4994045;28;20037;-90
2023/09/24 06:54:29;;;;;;;5.55;1.45;;;14.00;99.90;;;;;;4976511;28;20022;-90
2023/09/24 06:56:57;;;;;;;3.50;1.85;;;14.00;99.90;;;;;;4977048;28;20499;-90
2023/09/24 06:59:23;;;;;;;4.97;1.90;;;14.00;99.90;;;;;;4976883;28;20033;-90
2023/09/24 07:01:49;;;;;;;5.82;2.13;;;14.00;99.90;;;;;;4977281;28;20113;-90
2023/09/24 07:04:14;;;;;;;4.63;2.20;;;14.00;99.90;;;;;;4976644;28;20051;-90
2023/09/24 07:06:44;;;;;;;6.05;2.47;;;14.00;99.90;;;;;;4978157;28;20034;-90
2023/09/24 07:09:10;;;;;;;6.28;2.53;;;14.10;99.90;;;;;;4994674;28;20423;-90
2023/09/24 07:11:38;;;;;;;8.20;2.97;;;14.10;99.90;;;;;;4977156;28;20042;-89
2023/09/24 07:14:07;;;;;;;4.97;2.40;;;14.10;99.90;;;;;;4977562;28;20022;-90
2023/09/24 07:16:34;;;;;;;6.53;2.63;;;14.10;99.90;;;;;;4980373;28;20034;-90
2023/09/24 07:19:01;;;;;;;7.20;2.63;;;14.10;99.90;;;;;;4997569;28;20018;-90
2023/09/24 07:21:28;;;;;;;8.10;2.92;;;14.20;99.90;;;;;;4997329;28;20034;-91
2023/09/24 07:23:55;;;;;;;7.95;3.45;;;14.10;99.90;;;;;;4980482;28;20030;-91
2023/09/24 07:26:24;;;;;;;7.18;3.35;;;14.20;99.90;;;;;;4980036;28;20026;-90
2023/09/24 07:28:51;;;;;;;6.47;3.00;;;14.20;99.90;;;;;;4997538;28;20022;-91
2023/09/24 07:31:21;;;;;;;7.93;3.25;;;14.20;99.90;;;;;;4997249;28;20057;-90
2023/09/24 07:33:47;;;;;;;9.73;3.35;;;14.20;99.90;;;;;;4995902;28;20041;-89
2023/09/24 07:36:13;;;;;;;9.40;3.25;;;14.20;99.90;;;;;;4982901;28;20041;-90
2023/09/24 07:38:42;;;;;;;8.07;3.97;;;14.20;99.90;;;;;;4982741;28;20019;-89
2023/09/24 07:41:09;;;;;;;5.47;2.70;;;14.20;99.90;;;;;;4982950;28;20030;-90
2023/09/24 07:43:36;;;;;;;10.95;3.25;;;14.30;99.90;;;;;;4982367;28;20126;-90
2023/09/24 07:46:02;;;;;;;12.48;2.97;;;14.30;99.90;;;;;;4982286;28;20391;-89
2023/09/24 07:48:28;;;;;;;8.10;3.38;;;14.30;99.90;;;;;;4981334;28;20018;-89
2023/09/24 07:50:55;;;;;;;5.03;3.03;;;14.30;99.90;;;;;;4977094;28;20034;-89
2023/09/24 07:53:22;;;;;;;12.02;3.20;;;14.30;99.90;;;;;;4960694;28;20046;-90
2023/09/24 07:56:11;;;;;;;5.10;2.78;;;14.30;99.90;;;;;;4960652;28;20530;-89
2023/09/24 07:58:38;;;;;;;8.50;3.30;;;14.30;99.90;;;;;;4961092;28;20130;-90
2023/09/24 08:01:12;;;;;;;13.63;2.97;;;14.30;99.90;;;;;;4961401;28;20019;-90
2023/09/24 08:03:39;;;;;;;10.55;3.03;;;14.30;99.90;;;;;;4960505;28;20043;-89
2023/09/24 08:06:06;;;;;;;9.68;3.10;;;14.40;99.90;;;;;;4959873;28;20023;-89
2023/09/24 08:08:35;;;;;;;6.07;2.92;;;14.40;99.90;;;;;;4976787;28;20034;-89
2023/09/24 08:11:02;;;;;;;7.45;2.58;;;14.40;99.90;;;;;;4966166;28;20145;-88
2023/09/24 08:13:31;;;;;;;4.75;2.53;;;14.40;99.90;;;;;;5018107;28;20037;-89
2023/09/24 08:15:57;;;;;;;9.43;2.33;;;14.50;99.90;;;;;;4998521;28;20080;-89
2023/09/24 08:18:24;;;;;;;5.85;2.45;;;14.50;99.90;;;;;;4998857;28;20022;-89
2023/09/24 08:20:50;;;;;;;7.95;2.20;;;14.50;99.90;;;;;;4998923;28;20496;-90
2023/09/24 08:23:18;;;;;;;4.57;1.88;;;14.60;99.90;;;;;;4999223;28;20034;-90
2023/09/24 08:25:44;;;;;;;6.00;1.92;;;14.60;99.90;;;;;;5014641;28;20052;-89
2023/09/24 08:28:10;;;;;;;3.63;1.90;;;14.70;99.90;;;;;;4998728;28;20026;-90
2023/09/24 08:30:36;;;;;;;5.82;2.00;;;14.70;99.90;;;;;;5016748;28;20037;-90
2023/09/24 08:33:04;;;;;;;6.97;2.47;;;14.70;99.90;;;;;;5016284;28;20435;-90
2023/09/24 08:35:29;;;;;;;7.50;2.63;;;14.70;99.90;;;;;;5004540;28;20030;-89
2023/09/24 08:37:56;;;;;;;9.90;2.00;;;14.80;99.90;;;;;;5033415;28;20029;-90
2023/09/24 08:40:23;;;;;;;4.22;1.88;;;14.90;99.90;;;;;;5018051;28;20082;-89
2023/09/24 08:42:50;;;;;;;3.85;1.67;;;14.90;99.90;;;;;;5015461;28;20026;-90
2023/09/24 08:45:23;;;;;;;3.17;1.67;;;14.90;99.90;;;;;;5020089;28;20030;-89
2023/09/24 08:47:50;;;;;;;4.45;1.58;;;15.00;99.90;;;;;;5029896;28;20030;-90
2023/09/24 08:50:15;;;;;;;4.35;1.30;;;15.00;99.90;;;;;;5027894;28;20041;-90
2023/09/24 08:52:44;;;;;;;5.82;1.50;;;15.10;99.90;;;;;;5020978;28;20101;-90
2023/09/24 08:55:13;;;;;;;6.65;2.40;;;15.10;99.90;;;;;;5000744;28;20543;-89
2023/09/24 08:57:42;;;;;;;3.70;1.20;;;15.10;99.90;;;;;;4999902;28;20040;-90
2023/09/24 09:00:11;;;;;;;2.97;1.25;;;15.20;99.90;;;;;;5016951;28;20025;-90
2023/09/24 09:02:39;;;;;;;3.45;1.02;;;15.20;99.90;;;;;;5016336;28;20034;-90
2023/09/24 09:05:11;;;;;;;5.43;1.45;;;15.20;99.90;;;;;;4972827;28;1245926;-90
2023/09/24 09:07:37;;;;;;;4.70;1.23;;;15.30;99.90;;;;;;4999733;28;20034;-90
2023/09/24 09:10:03;;;;;;;2.10;1.20;;;15.30;99.90;;;;;;4999806;28;20040;-89
2023/09/24 09:12:29;;;;;;;3.35;1.00;;;15.30;99.90;;;;;;4999148;28;20121;-90
2023/09/24 09:14:55;;;;;;;3.92;1.77;;;15.40;99.90;;;;;;5017958;28;20029;-91
2023/09/24 09:17:22;;;;;;;4.30;1.30;;;15.40;99.90;;;;;;5018259;28;20113;-89
2023/09/24 09:19:52;;;;;;;5.18;1.20;;;15.40;99.90;;;;;;5015207;28;20099;-89
2023/09/24 09:22:25;;;;;;;5.07;1.30;;;15.50;99.90;;;;;;5016019;28;20026;-90
2023/09/24 09:25:08;;;;;;;4.03;1.30;;;15.50;99.90;;;;;;5016079;28;20029;-90
2023/09/24 09:27:43;;;;;;;5.95;1.60;;;15.50;99.90;;;;;;5016091;28;20030;-89
2023/09/24 09:30:17;;;;;;;5.18;1.65;;;15.50;99.90;;;;;;5016024;28;20041;-90
2023/09/24 09:32:46;;;;;;;5.00;1.67;;;15.50;99.90;;;;;;4998393;28;20026;-89
2023/09/24 09:35:14;;;;;;;4.15;1.67;;;15.50;99.90;;;;;;4998298;28;20026;-90
2023/09/24 09:37:41;;;;;;;9.02;2.28;;;15.50;99.90;;;;;;5015369;28;20045;-91
2023/09/24 09:40:07;;;;;;;6.53;1.50;;;15.60;99.90;;;;;;5014348;28;20479;-89
2023/09/24 09:42:33;;;;;;;6.25;2.45;;;15.50;99.90;;;;;;5014538;28;20038;-90
2023/09/24 09:45:09;;;;;;;7.47;2.05;;;15.60;99.90;;;;;;5015946;28;20482;-90
2023/09/24 09:48:01;;;;;;;13.98;2.42;;;15.60;99.90;;;;;;5014688;28;20097;-88
2023/09/24 09:50:31;;;;;;;5.65;1.73;;;15.60;99.90;;;;;;5010073;28;20128;-94
2023/09/24 09:53:01;;;;;;;8.98;2.30;;;15.60;99.90;;;;;;4979439;28;20058;-94
2023/09/24 09:55:30;;;;;;;;;;;15.60;99.90;;;;;;4979176;28;20030;-96
2023/09/24 09:57:56;;;;;;;5.85;1.98;;;15.60;99.90;;;;;;4978761;28;19913;-94
2023/09/24 10:00:32;;;;;;;8.90;2.47;;;15.70;99.90;;;;;;4979379;28;20125;-94
2023/09/24 10:02:59;;;;;;;5.57;2.35;;;15.80;99.90;;;;;;4979999;28;20085;-95
2023/09/24 10:05:25;;;;;;;8.98;2.22;;;15.80;99.90;;;;;;4981209;28;20061;-94
2023/09/24 10:07:51;;;;;;;5.38;1.80;;;15.90;99.90;;;;;;4982551;28;20029;-96
2023/09/24 10:10:35;;;;;;;13.63;2.95;;;15.90;99.90;;;;;;4981329;28;20026;-95
2023/09/24 10:13:03;;;;;;;11.35;1.80;;;16.00;99.90;;;;;;4998461;28;20050;-95
2023/09/24 10:15:30;;;;;;;6.30;2.20;;;16.10;99.90;;;;;;4989112;28;20019;-94
2023/09/24 10:18:11;;;;;;;8.35;1.85;;;16.10;99.90;;;;;;4983865;28;20054;-94
2023/09/24 10:20:49;;;;;;;6.35;1.38;;;16.20;99.90;;;;;;5001795;28;20030;-95
2023/09/24 10:23:31;;;;;;;4.28;1.30;;;16.20;99.90;;;;;;5007835;28;20033;-93
2023/09/24 10:26:00;;;;;;;6.03;1.35;;;16.20;99.90;;;;;;5008080;28;20010;-95
2023/09/24 10:28:51;;;;;;;8.07;1.38;;;16.30;99.90;;;;;;5008295;28;20094;-95
2023/09/24 10:31:20;;;;;;;7.63;1.30;;;16.30;99.90;;;;;;4993847;28;20038;-94
2023/09/24 10:33:58;;;;;;;4.50;1.38;;;16.30;99.90;;;;;;4988982;28;20090;-95
2023/09/24 10:36:33;;;;;;;7.13;1.30;;;16.30;99.90;;;;;;5004269;28;20026;-95
2023/09/24 10:39:11;;;;;;;6.70;1.42;;;16.40;99.90;;;;;;5001643;28;20027;-94
2023/09/24 10:42:09;;;;;;;4.68;1.83;;;16.40;99.90;;;;;;4985341;28;20030;-95
2023/09/24 10:44:35;;;;;;;4.05;1.70;;;16.40;99.90;;;;;;4987105;28;20027;-94
2023/09/24 10:47:34;;;;;;;3.55;1.00;;;16.40;99.90;;;;;;4988128;28;20408;-96
2023/09/24 10:50:10;;;;;;;4.95;1.30;;;16.40;99.90;;;;;;4990604;28;20031;-95
2023/09/24 10:52:54;;;;;;;2.03;0.93;;;16.50;99.90;;;;;;4986029;28;20061;-96
2023/09/24 10:55:34;;;;;;;1.73;0.80;;;16.50;99.90;;;;;;5003930;28;20030;-95
2023/09/24 10:58:05;;;;;;;;;;;16.50;99.90;;;;;;5004372;28;20113;-95
2023/09/24 11:00:32;;;;;;;;;;;16.50;99.90;;;;;;4991313;28;19909;-94
2023/09/24 11:03:02;;;;;;;5.45;1.33;;;16.60;99.90;;;;;;4993770;28;19934;-95
2023/09/24 11:05:33;;;;;;;3.20;1.05;;;16.60;99.90;;;;;;4992830;28;20061;-95
2023/09/24 11:07:58;;;;;;;3.47;1.00;;;16.60;99.90;;;;;;5010017;28;20031;-93
2023/09/24 11:10:26;;;;;;;4.78;1.30;;;16.60;99.90;;;;;;4994131;28;20060;-95
2023/09/24 11:12:56;;;;;;;2.83;1.15;;;16.60;99.90;;;;;;4991859;28;20030;-94
2023/09/24 11:15:27;;;;;;;1.52;0.88;;;16.60;99.90;;;;;;4990626;28;20031;-95
2023/09/24 11:17:53;;;;;;;3.25;0.70;;;16.50;99.90;;;;;;4987486;28;20026;-95
2023/09/24 11:20:22;;;;;;;3.53;0.80;;;16.60;99.90;;;;;;4987341;28;20026;-96
2023/09/24 11:23:10;;;;;;;2.97;0.90;;;16.60;99.90;;;;;;4986072;28;20229;-94
2023/09/24 11:25:37;;;;;;;0.95;0.65;;;16.60;99.90;;;;;;4991844;28;20034;-96
2023/09/24 11:28:05;;;;;;;1.95;0.80;;;16.60;99.90;;;;;;4993047;28;20023;-96
2023/09/24 11:30:48;;;;;;;4.43;0.80;;;16.60;99.90;;;;;;4996281;28;20125;-95
2023/09/24 11:33:22;;;;;;;2.53;0.88;;;16.60;99.90;;;;;;4998689;28;20094;-95
2023/09/24 11:35:52;;;;;;;1.88;0.93;;;16.70;99.90;;;;;;4992732;28;20065;-95
2023/09/24 11:38:32;;;;;;;2.92;0.75;;;16.70;99.90;;;;;;4994599;28;20030;-95
2023/09/24 11:41:13;;;;;;;5.57;1.30;;;16.70;99.90;;;;;;4985011;28;20041;-91
2023/09/24 11:43:44;;;;;;;3.53;0.77;;;16.80;99.90;;;;;;5006777;28;20030;-96
2023/09/24 11:46:17;;;;;;;3.60;0.77;;;16.80;99.90;;;;;;4983064;28;20078;-95
2023/09/24 11:48:43;;;;;;;2.15;0.85;;;16.90;99.90;;;;;;4992301;28;20022;-95
2023/09/24 11:51:10;;;;;;;3.72;1.00;;;17.00;99.90;;;;;;4981705;28;20034;-95
2023/09/24 11:53:35;;;;;;;3.47;1.00;;;17.00;99.90;;;;;;4965407;28;20041;-95
2023/09/24 11:56:01;;;;;;;8.60;1.77;;;17.10;99.90;;;;;;4975951;28;20026;-96
2023/09/24 11:58:27;;;;;;;2.38;1.20;;;17.20;99.90;;;;;;4978766;28;20042;-96
2023/09/24 12:00:55;;;;;;;7.65;1.25;;;17.20;99.90;;;;;;4983466;28;20086;-94
2023/09/24 12:03:21;;;;;;;4.05;1.13;;;17.20;99.90;;;;;;4979969;28;20023;-95
2023/09/24 12:05:47;;;;;;;6.30;1.30;;;17.30;99.90;;;;;;4996669;28;20089;-95
2023/09/24 12:08:13;;;;;;;6.28;1.45;;;17.30;99.90;;;;;;4991278;28;20500;-95
2023/09/24 12:10:54;;;;;;;8.52;1.20;;;17.40;99.90;;;;;;5000220;28;20139;-96
2023/09/24 12:14:14;;;;;;;8.10;1.60;;;17.50;99.90;;;;;;4983760;28;20023;-96
2023/09/24 12:16:39;;;;;;;4.85;1.40;;;17.60;99.90;;;;;;5000946;28;20041;-96
2023/09/24 12:19:04;;;;;;;6.03;1.70;;;17.70;99.90;;;;;;4996429;28;20027;-96
2023/09/24 12:21:32;;;;;;;4.20;1.33;;;17.70;99.90;;;;;;4984015;28;20023;-96
2023/09/24 12:23:58;;;;;;;8.05;1.63;;;17.80;99.90;;;;;;4974938;28;20026;-96
2023/09/24 12:26:23;;;;;;;9.15;1.90;;;17.80;99.90;;;;;;4980515;28;20513;-96
2023/09/24 12:28:49;;;;;;;8.68;2.15;;;17.80;99.90;;;;;;4982124;28;20055;-96
2023/09/24 12:31:18;;;;;;;7.15;1.63;;;17.80;99.90;;;;;;4985888;28;20090;-96
2023/09/24 12:33:46;;;;;;;6.32;1.70;;;17.80;99.90;;;;;;4979284;28;20051;-96
2023/09/24 12:36:15;;;;;;;6.65;1.63;;;17.80;99.90;;;;;;4993314;28;20023;-96
2023/09/24 12:38:41;;;;;;;6.07;1.20;;;17.70;99.90;;;;;;4990800;28;20018;-96
2023/09/24 12:41:09;;;;;;;5.78;1.13;;;17.70;99.90;;;;;;4995856;28;20068;-96
2023/09/24 12:43:35;;;;;;;9.02;1.23;;;17.70;99.90;;;;;;4999321;28;20050;-95
2023/09/24 12:46:21;;;;;;;5.80;1.67;;;17.70;99.90;;;;;;4995293;28;20027;-95
2023/09/24 12:48:49;;;;;;;8.18;1.40;;;17.60;99.90;;;;;;4979801;28;20034;-96
2023/09/24 12:51:15;;;;;;;4.32;1.40;;;17.60;99.90;;;;;;4999874;28;20043;-96
2023/09/24 12:53:41;;;;;;;7.15;1.20;;;17.60;99.90;;;;;;4999700;28;20025;-96